Time;durP1;ratioP1;P1;durP2;ratioP2;P2;SDS_P1;SDS_P2;PMS_P1;PMS_P2;Temp;Humidity;BMP_temperature;BMP_pressure;BME280_temperature;BME280_humidity;BME280_pressure;Samples;Min_cycle;Max_cycle;Signal;HPM_P1;HPM_P2
2021/01/27 12:55:13;;;;;;;9.13;3.72;;;;;;;;;;5135453;27;20817;-78
2021/01/27 12:57:40;;;;;;;5.50;3.28;;;;;;;;;;5127791;28;20533;-78
2021/01/27 13:00:11;;;;;;;7.13;3.80;;;;;;;;;;5111910;28;20047;-78
2021/01/27 13:02:37;;;;;;;5.38;2.85;;;;;;;;;;5105137;28;20456;-77
2021/01/27 13:05:03;;;;;;;6.55;3.05;;;;;;;;;;5112340;28;20036;-77
2021/01/27 13:07:29;;;;;;;8.93;3.45;;;;;;;;;;5115220;28;20073;-79
2021/01/27 13:09:55;;;;;;;5.80;3.58;;;;;;;;;;5112960;28;20476;-80
2021/01/27 13:12:21;;;;;;;5.32;2.70;;;;;;;;;;5113177;28;20032;-80
2021/01/27 13:14:47;;;;;;;4.53;2.63;;;;;;;;;;5115658;28;20070;-77
2021/01/27 13:17:13;;;;;;;2.95;2.17;;;;;;;;;;5125720;28;20056;-77
2021/01/27 13:19:39;;;;;;;4.50;2.00;;;;;;;;;;5110416;28;20027;-78
2021/01/27 13:22:05;;;;;;;4.15;1.95;;;;;;;;;;5129070;28;20044;-77
2021/01/27 13:24:31;;;;;;;4.38;1.83;;;;;;;;;;5116179;28;20032;-79
2021/01/27 13:26:57;;;;;;;2.58;1.60;;;;;;;;;;5118375;28;20032;-79
2021/01/27 13:29:23;;;;;;;1.50;1.20;;;;;;;;;;5117345;28;20027;-78
2021/01/27 13:31:49;;;;;;;2.25;1.50;;;;;;;;;;5119223;28;20107;-79
2021/01/27 13:34:16;;;;;;;2.10;1.50;;;;;;;;;;5117642;28;20036;-79
2021/01/27 13:36:42;;;;;;;2.13;1.17;;;;;;;;;;5125148;28;20072;-77
2021/01/27 13:39:08;;;;;;;3.78;1.30;;;;;;;;;;5121465;28;20027;-78
2021/01/27 13:41:34;;;;;;;2.53;1.30;;;;;;;;;;5118592;28;20028;-77
2021/01/27 13:44:00;;;;;;;3.45;1.70;;;;;;;;;;5126738;28;20036;-77
2021/01/27 13:46:26;;;;;;;6.03;1.73;;;;;;;;;;5129306;28;20035;-77
2021/01/27 13:48:52;;;;;;;4.30;1.17;;;;;;;;;;5121119;28;20027;-76
2021/01/27 13:51:18;;;;;;;2.90;0.98;;;;;;;;;;5130528;28;20027;-77
2021/01/27 13:53:44;;;;;;;2.13;1.13;;;;;;;;;;5119368;28;20115;-77
2021/01/27 13:56:10;;;;;;;2.78;1.00;;;;;;;;;;5114325;28;20500;-78
2021/01/27 13:58:36;;;;;;;1.60;1.20;;;;;;;;;;5107958;28;20027;-77
2021/01/27 14:01:02;;;;;;;2.03;1.42;;;;;;;;;;5107177;28;20042;-76
2021/01/27 14:03:28;;;;;;;4.10;1.50;;;;;;;;;;5105711;28;20023;-76
2021/01/27 14:05:54;;;;;;;3.92;1.25;;;;;;;;;;5094744;28;20124;-76
2021/01/27 14:08:20;;;;;;;2.05;1.27;;;;;;;;;;5093454;28;20505;-76
2021/01/27 14:10:46;;;;;;;2.95;0.90;;;;;;;;;;5090340;28;20380;-77
2021/01/27 14:13:12;;;;;;;1.77;1.08;;;;;;;;;;5077882;28;20109;-77
2021/01/27 14:15:38;;;;;;;2.80;1.88;;;;;;;;;;5093533;28;20627;-77
2021/01/27 14:18:04;;;;;;;4.78;1.13;;;;;;;;;;5074831;28;20077;-77
2021/01/27 14:20:32;;;;;;;2.90;1.48;;;;;;;;;;5091132;28;20028;-77
2021/01/27 14:22:58;;;;;;;2.20;1.20;;;;;;;;;;5087317;28;20028;-77
2021/01/27 14:25:25;;;;;;;9.18;1.30;;;;;;;;;;5087128;28;20016;-77
2021/01/27 14:27:51;;;;;;;3.05;1.67;;;;;;;;;;5076260;28;20020;-77
2021/01/27 14:30:40;;;;;;;2.63;1.42;;;;;;;;;;5091139;28;20030;-76
2021/01/27 14:33:07;;;;;;;2.30;1.40;;;;;;;;;;5088410;28;20476;-77
2021/01/27 14:35:33;;;;;;;2.63;1.17;;;;;;;;;;5078347;28;20097;-75
2021/01/27 14:37:59;;;;;;;3.42;1.20;;;;;;;;;;5092358;28;20487;-77
2021/01/27 14:40:26;;;;;;;6.28;1.60;;;;;;;;;;5088973;28;20510;-76
2021/01/27 14:42:52;;;;;;;2.90;1.50;;;;;;;;;;5091322;28;20021;-76
2021/01/27 14:45:18;;;;;;;3.60;1.90;;;;;;;;;;5091929;28;20024;-76
2021/01/27 14:47:46;;;;;;;3.05;1.42;;;;;;;;;;5091883;28;20525;-76
2021/01/27 14:50:12;;;;;;;3.05;1.60;;;;;;;;;;5091346;28;20028;-76
2021/01/27 14:52:39;;;;;;;7.43;1.65;;;;;;;;;;5088982;28;20074;-76
2021/01/27 14:55:05;;;;;;;3.28;1.58;;;;;;;;;;5088401;28;20039;-76
2021/01/27 14:57:31;;;;;;;3.45;1.92;;;;;;;;;;5096946;28;20024;-76
2021/01/27 14:59:57;;;;;;;4.50;2.42;;;;;;;;;;5091954;28;20026;-76
2021/01/27 15:02:25;;;;;;;6.15;2.03;;;;;;;;;;5091495;28;20107;-76
2021/01/27 15:04:51;;;;;;;4.43;1.60;;;;;;;;;;5094441;28;20028;-77
2021/01/27 15:07:18;;;;;;;2.92;1.80;;;;;;;;;;5093957;28;20503;-77
2021/01/27 15:09:44;;;;;;;3.92;1.50;;;;;;;;;;5074213;28;20040;-76
2021/01/27 15:12:11;;;;;;;5.05;1.92;;;;;;;;;;5090422;28;20119;-76
2021/01/27 15:14:37;;;;;;;4.95;2.05;;;;;;;;;;5091534;28;20028;-76
2021/01/27 15:17:03;;;;;;;6.05;3.60;;;;;;;;;;5089721;28;20440;-75
2021/01/27 15:19:29;;;;;;;4.80;2.60;;;;;;;;;;5086003;28;20034;-75
2021/01/27 15:21:55;;;;;;;4.60;1.77;;;;;;;;;;5090758;28;20099;-74
2021/01/27 15:24:21;;;;;;;4.18;2.33;;;;;;;;;;5090189;28;20058;-75
2021/01/27 15:26:47;;;;;;;2.38;1.70;;;;;;;;;;5087500;28;20035;-76
2021/01/27 15:29:13;;;;;;;4.10;2.40;;;;;;;;;;5087225;28;20038;-75
2021/01/27 15:31:39;;;;;;;2.78;1.80;;;;;;;;;;5090311;28;20024;-76
2021/01/27 15:34:05;;;;;;;3.88;2.00;;;;;;;;;;5089936;28;20035;-75
2021/01/27 15:36:31;;;;;;;5.00;1.92;;;;;;;;;;5090283;28;20032;-75
2021/01/27 15:38:57;;;;;;;4.85;1.85;;;;;;;;;;5089587;28;20024;-75
2021/01/27 15:41:24;;;;;;;2.78;2.05;;;;;;;;;;5090409;28;20032;-75
2021/01/27 15:43:51;;;;;;;3.22;2.30;;;;;;;;;;5091394;28;20036;-76
2021/01/27 15:46:17;;;;;;;7.05;2.60;;;;;;;;;;5073724;28;20103;-77
2021/01/27 15:48:43;;;;;;;4.13;2.17;;;;;;;;;;5080026;28;20032;-77
2021/01/27 15:51:09;;;;;;;2.65;2.00;;;;;;;;;;5055417;28;20032;-76
2021/01/27 15:53:36;;;;;;;3.20;2.00;;;;;;;;;;5042294;28;20059;-76
2021/01/27 15:56:02;;;;;;;3.78;2.00;;;;;;;;;;5069109;28;20087;-77
2021/01/27 15:58:28;;;;;;;3.10;2.08;;;;;;;;;;5068509;28;20020;-77
2021/01/27 16:00:54;;;;;;;4.85;2.58;;;;;;;;;;5077888;28;20028;-77
2021/01/27 16:03:20;;;;;;;5.60;2.35;;;;;;;;;;5087496;28;20036;-77
2021/01/27 16:05:46;;;;;;;4.07;2.70;;;;;;;;;;5090597;28;20032;-77
2021/01/27 16:08:12;;;;;;;3.17;2.10;;;;;;;;;;5093778;28;20507;-77
2021/01/27 16:10:38;;;;;;;6.70;3.05;;;;;;;;;;5091982;28;20024;-78
2021/01/27 16:13:05;;;;;;;5.68;2.63;;;;;;;;;;5090691;28;20035;-76
2021/01/27 16:15:33;;;;;;;4.57;2.70;;;;;;;;;;5091891;28;20024;-77
2021/01/27 16:17:59;;;;;;;4.40;2.70;;;;;;;;;;5092033;28;20388;-77
2021/01/27 16:20:25;;;;;;;4.35;2.83;;;;;;;;;;5088092;28;20085;-77
2021/01/27 16:22:52;;;;;;;4.25;2.72;;;;;;;;;;5090299;28;20012;-77
2021/01/27 16:25:29;;;;;;;3.55;2.63;;;;;;;;;;5091539;28;20023;-77
2021/01/27 16:27:56;;;;;;;4.50;2.80;;;;;;;;;;5098007;28;20028;-76
2021/01/27 16:30:22;;;;;;;4.93;3.00;;;;;;;;;;5091605;28;20024;-77
2021/01/27 16:32:52;;;;;;;4.80;2.83;;;;;;;;;;5095407;28;20052;-77
2021/01/27 16:35:22;;;;;;;3.72;2.47;;;;;;;;;;5092828;28;20039;-76
2021/01/27 16:37:48;;;;;;;5.25;3.08;;;;;;;;;;5090982;28;20032;-77
2021/01/27 16:40:15;;;;;;;5.80;3.40;;;;;;;;;;5089635;28;20050;-77
2021/01/27 16:42:41;;;;;;;4.18;2.90;;;;;;;;;;5090778;28;20028;-76
2021/01/27 16:45:08;;;;;;;5.07;3.13;;;;;;;;;;5091467;28;20244;-77
2021/01/27 16:47:34;;;;;;;6.05;3.55;;;;;;;;;;5089047;28;20488;-77
2021/01/27 16:50:00;;;;;;;3.17;2.22;;;;;;;;;;5090063;28;20081;-76
2021/01/27 16:52:29;;;;;;;5.35;3.13;;;;;;;;;;5090858;28;20104;-76
2021/01/27 16:54:55;;;;;;;5.75;3.00;;;;;;;;;;5083053;28;20023;-77
2021/01/27 16:57:21;;;;;;;5.45;3.70;;;;;;;;;;5093904;28;20129;-78
2021/01/27 16:59:47;;;;;;;8.07;3.00;;;;;;;;;;5097695;28;20031;-77
2021/01/27 17:02:13;;;;;;;7.00;3.80;;;;;;;;;;5092234;28;20490;-75
2021/01/27 17:04:39;;;;;;;5.78;4.28;;;;;;;;;;5105616;28;20024;-78
2021/01/27 17:07:05;;;;;;;6.25;3.38;;;;;;;;;;5112391;28;20017;-79
2021/01/27 17:09:31;;;;;;;6.80;4.32;;;;;;;;;;5105135;28;20131;-80
2021/01/27 17:11:57;;;;;;;5.95;4.68;;;;;;;;;;5076571;28;20032;-77
2021/01/27 17:14:23;;;;;;;7.68;4.53;;;;;;;;;;5094252;28;20087;-78
2021/01/27 17:16:49;;;;;;;6.63;4.82;;;;;;;;;;5098320;28;20035;-78
2021/01/27 17:19:16;;;;;;;6.90;5.07;;;;;;;;;;5098192;28;20028;-80
2021/01/27 17:21:42;;;;;;;6.28;4.85;;;;;;;;;;5096084;28;20029;-80
2021/01/27 17:24:09;;;;;;;9.00;5.68;;;;;;;;;;5099980;28;20051;-77
2021/01/27 17:26:35;;;;;;;9.13;5.57;;;;;;;;;;5105736;28;20028;-77
2021/01/27 17:29:02;;;;;;;7.43;5.88;;;;;;;;;;5102442;28;20054;-78
2021/01/27 17:31:28;;;;;;;10.65;5.60;;;;;;;;;;5099072;28;20036;-77
2021/01/27 17:33:54;;;;;;;9.95;5.97;;;;;;;;;;5101739;28;20032;-77
2021/01/27 17:36:22;;;;;;;8.98;5.88;;;;;;;;;;5089504;28;20033;-78
2021/01/27 17:38:48;;;;;;;9.35;5.63;;;;;;;;;;5078611;28;20024;-75
2021/01/27 17:41:14;;;;;;;6.63;5.25;;;;;;;;;;5085202;28;20133;-77
2021/01/27 17:43:40;;;;;;;8.48;6.05;;;;;;;;;;5081025;28;20028;-79
2021/01/27 17:46:06;;;;;;;10.05;5.18;;;;;;;;;;5096808;28;20032;-76
2021/01/27 17:48:32;;;;;;;9.65;6.50;;;;;;;;;;5107058;28;20086;-77
2021/01/27 17:50:58;;;;;;;7.63;5.72;;;;;;;;;;5096430;28;20028;-77
2021/01/27 17:53:24;;;;;;;11.15;6.30;;;;;;;;;;5073389;28;20036;-77
2021/01/27 17:55:50;;;;;;;8.80;5.60;;;;;;;;;;5089063;28;20396;-76
2021/01/27 17:58:16;;;;;;;8.88;6.82;;;;;;;;;;5056220;28;20029;-77
2021/01/27 18:00:42;;;;;;;8.35;6.53;;;;;;;;;;5071154;28;20024;-74
2021/01/27 18:03:09;;;;;;;11.10;6.65;;;;;;;;;;5052650;28;20492;-77
2021/01/27 18:05:36;;;;;;;14.18;6.95;;;;;;;;;;5072661;28;20035;-79
2021/01/27 18:08:03;;;;;;;10.20;7.57;;;;;;;;;;5064771;28;20366;-75
2021/01/27 18:10:29;;;;;;;11.40;7.47;;;;;;;;;;5092543;28;20051;-78
2021/01/27 18:12:56;;;;;;;8.70;6.28;;;;;;;;;;5076678;28;20035;-80
2021/01/27 18:15:23;;;;;;;10.95;8.23;;;;;;;;;;5095102;28;20472;-76
2021/01/27 18:17:50;;;;;;;10.82;8.18;;;;;;;;;;5074054;28;20515;-78
2021/01/27 18:20:25;;;;;;;14.75;9.30;;;;;;;;;;5056639;28;20090;-78
2021/01/27 18:22:51;;;;;;;11.43;7.85;;;;;;;;;;5073326;28;20115;-77
2021/01/27 18:25:21;;;;;;;10.82;8.65;;;;;;;;;;5073715;28;20074;-78
2021/01/27 18:27:47;;;;;;;9.93;7.18;;;;;;;;;;5074102;28;20085;-78
2021/01/27 18:30:14;;;;;;;10.77;7.72;;;;;;;;;;5078924;28;20033;-77
2021/01/27 18:32:40;;;;;;;13.43;7.40;;;;;;;;;;5078656;28;20029;-76
2021/01/27 18:35:07;;;;;;;12.65;8.38;;;;;;;;;;5079057;28;20037;-77
2021/01/27 18:37:33;;;;;;;11.90;8.45;;;;;;;;;;5076493;28;20553;-79
2021/01/27 18:40:00;;;;;;;11.60;8.15;;;;;;;;;;5074810;28;20075;-76
2021/01/27 18:42:26;;;;;;;12.77;7.82;;;;;;;;;;5066246;28;20029;-77
2021/01/27 18:44:52;;;;;;;12.35;8.88;;;;;;;;;;5063631;28;20024;-77
2021/01/27 18:47:18;;;;;;;13.45;8.15;;;;;;;;;;5100316;28;20038;-79
2021/01/27 18:49:44;;;;;;;11.27;8.07;;;;;;;;;;5077637;28;20035;-79
2021/01/27 18:52:10;;;;;;;10.95;8.18;;;;;;;;;;5079352;28;20039;-76
